sensor_id;sensor_type;location;lat;lon;timestamp;temperature;humidity
70234;DHT22;75981;42.636;23.376;2024-02-23T00:00:34;8.34;59.28
70234;DHT22;75981;42.636;23.376;2024-02-23T00:02:59;8.44;58.83
70234;DHT22;75981;42.636;23.376;2024-02-23T00:05:25;8.36;58.46
70234;DHT22;75981;42.636;23.376;2024-02-23T00:07:50;8.07;59.94
70234;DHT22;75981;42.636;23.376;2024-02-23T00:10:16;8.38;59.36
70234;DHT22;75981;42.636;23.376;2024-02-23T00:12:42;8.36;59.45
70234;DHT22;75981;42.636;23.376;2024-02-23T00:15:09;8.02;60.44
70234;DHT22;75981;42.636;23.376;2024-02-23T00:17:35;8.10;60.35
70234;DHT22;75981;42.636;23.376;2024-02-23T00:20:00;8.38;59.46
70234;DHT22;75981;42.636;23.376;2024-02-23T00:22:25;8.47;58.78
70234;DHT22;75981;42.636;23.376;2024-02-23T00:24:51;8.29;58.97
70234;DHT22;75981;42.636;23.376;2024-02-23T00:27:17;8.27;59.68
70234;DHT22;75981;42.636;23.376;2024-02-23T00:29:42;8.27;59.57
70234;DHT22;75981;42.636;23.376;2024-02-23T00:32:08;8.22;59.41
70234;DHT22;75981;42.636;23.376;2024-02-23T00:34:33;7.93;60.35
70234;DHT22;75981;42.636;23.376;2024-02-23T00:36:59;7.87;60.57
70234;DHT22;75981;42.636;23.376;2024-02-23T00:39:24;7.87;60.65
70234;DHT22;75981;42.636;23.376;2024-02-23T00:41:50;7.92;60.50
70234;DHT22;75981;42.636;23.376;2024-02-23T00:44:15;8.20;59.92
70234;DHT22;75981;42.636;23.376;2024-02-23T00:46:41;8.07;59.70
70234;DHT22;75981;42.636;23.376;2024-02-23T00:49:06;8.31;59.25
70234;DHT22;75981;42.636;23.376;2024-02-23T00:51:32;8.36;58.78
70234;DHT22;75981;42.636;23.376;2024-02-23T00:53:57;8.34;58.67
70234;DHT22;75981;42.636;23.376;2024-02-23T00:56:23;7.87;60.07
70234;DHT22;75981;42.636;23.376;2024-02-23T00:58:48;8.02;59.93
70234;DHT22;75981;42.636;23.376;2024-02-23T01:01:14;8.19;59.44
70234;DHT22;75981;42.636;23.376;2024-02-23T01:03:39;8.16;59.05
70234;DHT22;75981;42.636;23.376;2024-02-23T01:06:05;8.27;59.06
70234;DHT22;75981;42.636;23.376;2024-02-23T01:08:30;7.94;59.66
70234;DHT22;75981;42.636;23.376;2024-02-23T01:10:56;8.00;59.64
70234;DHT22;75981;42.636;23.376;2024-02-23T01:13:22;8.19;59.44
70234;DHT22;75981;42.636;23.376;2024-02-23T01:15:47;7.96;60.14
70234;DHT22;75981;42.636;23.376;2024-02-23T01:18:13;7.79;60.52
70234;DHT22;75981;42.636;23.376;2024-02-23T01:20:39;7.97;60.00
70234;DHT22;75981;42.636;23.376;2024-02-23T01:23:05;8.17;59.14
70234;DHT22;75981;42.636;23.376;2024-02-23T01:25:30;8.30;58.70
70234;DHT22;75981;42.636;23.376;2024-02-23T01:27:55;8.38;58.43
70234;DHT22;75981;42.636;23.376;2024-02-23T01:30:21;8.51;58.19
70234;DHT22;75981;42.636;23.376;2024-02-23T01:32:46;8.36;58.67
70234;DHT22;75981;42.636;23.376;2024-02-23T01:35:12;8.43;58.42
70234;DHT22;75981;42.636;23.376;2024-02-23T01:37:37;8.44;58.46
70234;DHT22;75981;42.636;23.376;2024-02-23T01:40:03;8.38;58.59
70234;DHT22;75981;42.636;23.376;2024-02-23T01:42:29;8.02;59.48
70234;DHT22;75981;42.636;23.376;2024-02-23T01:44:54;7.99;59.70
70234;DHT22;75981;42.636;23.376;2024-02-23T01:47:27;8.29;58.66
70234;DHT22;75981;42.636;23.376;2024-02-23T01:49:54;8.29;58.48
70234;DHT22;75981;42.636;23.376;2024-02-23T01:52:20;8.14;58.92
70234;DHT22;75981;42.636;23.376;2024-02-23T01:54:46;7.83;59.60
70234;DHT22;75981;42.636;23.376;2024-02-23T01:57:12;7.78;59.94
70234;DHT22;75981;42.636;23.376;2024-02-23T01:59:38;8.19;58.73
70234;DHT22;75981;42.636;23.376;2024-02-23T02:02:04;7.76;59.65
70234;DHT22;75981;42.636;23.376;2024-02-23T02:04:30;7.81;59.80
70234;DHT22;75981;42.636;23.376;2024-02-23T02:06:56;7.63;60.35
70234;DHT22;75981;42.636;23.376;2024-02-23T02:09:22;7.59;60.35
70234;DHT22;75981;42.636;23.376;2024-02-23T02:11:50;7.96;59.73
70234;DHT22;75981;42.636;23.376;2024-02-23T02:14:17;8.10;59.18
70234;DHT22;75981;42.636;23.376;2024-02-23T02:16:42;8.14;59.11
70234;DHT22;75981;42.636;23.376;2024-02-23T02:19:09;7.82;59.63
70234;DHT22;75981;42.636;23.376;2024-02-23T02:21:36;7.75;59.86
70234;DHT22;75981;42.636;23.376;2024-02-23T02:24:02;7.71;59.94
70234;DHT22;75981;42.636;23.376;2024-02-23T02:26:28;7.75;59.87
70234;DHT22;75981;42.636;23.376;2024-02-23T02:28:53;7.93;59.88
70234;DHT22;75981;42.636;23.376;2024-02-23T02:31:19;7.96;59.64
70234;DHT22;75981;42.636;23.376;2024-02-23T02:33:44;8.02;59.64
70234;DHT22;75981;42.636;23.376;2024-02-23T02:36:10;8.22;58.88
70234;DHT22;75981;42.636;23.376;2024-02-23T02:38:36;7.90;59.45
70234;DHT22;75981;42.636;23.376;2024-02-23T02:41:02;7.75;60.02
70234;DHT22;75981;42.636;23.376;2024-02-23T02:43:28;7.73;60.14
70234;DHT22;75981;42.636;23.376;2024-02-23T02:45:53;7.75;60.14
70234;DHT22;75981;42.636;23.376;2024-02-23T02:48:19;8.03;59.41
70234;DHT22;75981;42.636;23.376;2024-02-23T02:50:44;7.96;59.10
70234;DHT22;75981;42.636;23.376;2024-02-23T02:53:10;7.59;60.32
70234;DHT22;75981;42.636;23.376;2024-02-23T02:55:36;7.62;60.50
70234;DHT22;75981;42.636;23.376;2024-02-23T02:58:02;7.78;60.33
70234;DHT22;75981;42.636;23.376;2024-02-23T03:00:27;7.69;60.35
70234;DHT22;75981;42.636;23.376;2024-02-23T03:02:53;7.83;60.07
70234;DHT22;75981;42.636;23.376;2024-02-23T03:05:18;7.81;60.18
70234;DHT22;75981;42.636;23.376;2024-02-23T03:07:44;7.72;60.47
70234;DHT22;75981;42.636;23.376;2024-02-23T03:10:09;7.72;60.67
70234;DHT22;75981;42.636;23.376;2024-02-23T03:12:35;7.71;60.51
70234;DHT22;75981;42.636;23.376;2024-02-23T03:15:00;7.87;60.09
70234;DHT22;75981;42.636;23.376;2024-02-23T03:17:28;8.03;59.55
70234;DHT22;75981;42.636;23.376;2024-02-23T03:19:53;7.56;60.91
70234;DHT22;75981;42.636;23.376;2024-02-23T03:22:18;7.30;61.81
70234;DHT22;75981;42.636;23.376;2024-02-23T03:24:44;7.40;61.62
70234;DHT22;75981;42.636;23.376;2024-02-23T03:27:09;7.51;61.37
70234;DHT22;75981;42.636;23.376;2024-02-23T03:29:37;7.35;61.80
70234;DHT22;75981;42.636;23.376;2024-02-23T03:32:03;7.55;61.25
70234;DHT22;75981;42.636;23.376;2024-02-23T03:34:28;7.63;61.23
70234;DHT22;75981;42.636;23.376;2024-02-23T03:36:53;7.89;60.12
70234;DHT22;75981;42.636;23.376;2024-02-23T03:39:19;7.71;60.46
70234;DHT22;75981;42.636;23.376;2024-02-23T03:41:44;7.54;61.00
70234;DHT22;75981;42.636;23.376;2024-02-23T03:44:10;7.55;61.22
70234;DHT22;75981;42.636;23.376;2024-02-23T03:46:35;7.81;60.56
70234;DHT22;75981;42.636;23.376;2024-02-23T03:49:00;7.96;60.22
70234;DHT22;75981;42.636;23.376;2024-02-23T03:51:26;8.07;59.82
70234;DHT22;75981;42.636;23.376;2024-02-23T03:53:51;7.92;60.11
70234;DHT22;75981;42.636;23.376;2024-02-23T03:56:17;7.85;60.78
70234;DHT22;75981;42.636;23.376;2024-02-23T03:58:42;7.11;62.91
70234;DHT22;75981;42.636;23.376;2024-02-23T04:01:08;7.68;61.57
70234;DHT22;75981;42.636;23.376;2024-02-23T04:03:35;7.51;61.52
70234;DHT22;75981;42.636;23.376;2024-02-23T04:06:00;7.54;61.42
70234;DHT22;75981;42.636;23.376;2024-02-23T04:08:26;7.63;61.42
70234;DHT22;75981;42.636;23.376;2024-02-23T04:10:51;7.81;61.26
70234;DHT22;75981;42.636;23.376;2024-02-23T04:13:16;7.93;60.72
70234;DHT22;75981;42.636;23.376;2024-02-23T04:15:43;7.99;60.45
70234;DHT22;75981;42.636;23.376;2024-02-23T04:18:08;7.68;61.02
70234;DHT22;75981;42.636;23.376;2024-02-23T04:20:34;7.89;60.90
70234;DHT22;75981;42.636;23.376;2024-02-23T04:22:59;7.73;61.46
70234;DHT22;75981;42.636;23.376;2024-02-23T04:25:25;7.96;61.14
70234;DHT22;75981;42.636;23.376;2024-02-23T04:27:50;7.94;60.97
70234;DHT22;75981;42.636;23.376;2024-02-23T04:30:16;8.06;60.38
70234;DHT22;75981;42.636;23.376;2024-02-23T04:32:41;8.10;60.16
70234;DHT22;75981;42.636;23.376;2024-02-23T04:35:07;8.13;60.07
70234;DHT22;75981;42.636;23.376;2024-02-23T04:37:36;7.56;61.54
70234;DHT22;75981;42.636;23.376;2024-02-23T04:40:01;7.54;62.05
70234;DHT22;75981;42.636;23.376;2024-02-23T04:42:27;7.71;61.48
70234;DHT22;75981;42.636;23.376;2024-02-23T04:44:53;7.63;61.58
70234;DHT22;75981;42.636;23.376;2024-02-23T04:47:20;7.93;60.64
70234;DHT22;75981;42.636;23.376;2024-02-23T04:49:45;7.81;60.53
70234;DHT22;75981;42.636;23.376;2024-02-23T04:52:11;7.45;61.95
70234;DHT22;75981;42.636;23.376;2024-02-23T04:54:45;7.54;61.68
70234;DHT22;75981;42.636;23.376;2024-02-23T04:57:11;7.62;61.40
70234;DHT22;75981;42.636;23.376;2024-02-23T04:59:36;7.61;61.41
70234;DHT22;75981;42.636;23.376;2024-02-23T05:02:01;7.36;62.22
70234;DHT22;75981;42.636;23.376;2024-02-23T05:04:27;7.10;62.80
70234;DHT22;75981;42.636;23.376;2024-02-23T05:06:53;7.42;62.13
70234;DHT22;75981;42.636;23.376;2024-02-23T05:09:18;7.38;62.34
70234;DHT22;75981;42.636;23.376;2024-02-23T05:11:45;7.48;61.70
70234;DHT22;75981;42.636;23.376;2024-02-23T05:14:12;7.30;61.79
70234;DHT22;75981;42.636;23.376;2024-02-23T05:16:38;6.92;63.07
70234;DHT22;75981;42.636;23.376;2024-02-23T05:19:03;7.14;62.83
70234;DHT22;75981;42.636;23.376;2024-02-23T05:21:29;7.34;61.46
70234;DHT22;75981;42.636;23.376;2024-02-23T05:23:54;7.07;62.52
70234;DHT22;75981;42.636;23.376;2024-02-23T05:26:19;7.41;61.61
70234;DHT22;75981;42.636;23.376;2024-02-23T05:28:45;7.44;61.52
70234;DHT22;75981;42.636;23.376;2024-02-23T05:31:11;7.35;61.85
70234;DHT22;75981;42.636;23.376;2024-02-23T05:33:36;7.66;60.80
70234;DHT22;75981;42.636;23.376;2024-02-23T05:36:04;9.03;71.43
70234;DHT22;75981;42.636;23.376;2024-02-23T05:38:30;9.46;71.38
70234;DHT22;75981;42.636;23.376;2024-02-23T05:40:56;9.70;67.67
70234;DHT22;75981;42.636;23.376;2024-02-23T05:43:21;9.55;65.24
70234;DHT22;75981;42.636;23.376;2024-02-23T05:45:47;9.48;66.76
70234;DHT22;75981;42.636;23.376;2024-02-23T05:48:15;8.44;61.60
70234;DHT22;75981;42.636;23.376;2024-02-23T05:50:41;8.48;60.12
70234;DHT22;75981;42.636;23.376;2024-02-23T05:53:06;8.71;59.11
70234;DHT22;75981;42.636;23.376;2024-02-23T05:55:32;8.68;58.74
70234;DHT22;75981;42.636;23.376;2024-02-23T05:57:58;8.91;58.07
70234;DHT22;75981;42.636;23.376;2024-02-23T06:00:24;7.85;60.31
70234;DHT22;75981;42.636;23.376;2024-02-23T06:02:50;7.86;61.32
70234;DHT22;75981;42.636;23.376;2024-02-23T06:05:15;8.79;58.79
70234;DHT22;75981;42.636;23.376;2024-02-23T06:07:41;9.15;57.34
70234;DHT22;75981;42.636;23.376;2024-02-23T06:10:07;9.51;56.60
70234;DHT22;75981;42.636;23.376;2024-02-23T06:12:32;9.82;55.51
70234;DHT22;75981;42.636;23.376;2024-02-23T06:14:57;9.99;54.89
70234;DHT22;75981;42.636;23.376;2024-02-23T06:17:24;10.30;54.26
70234;DHT22;75981;42.636;23.376;2024-02-23T06:19:49;10.45;53.79
70234;DHT22;75981;42.636;23.376;2024-02-23T06:22:15;10.77;53.21
70234;DHT22;75981;42.636;23.376;2024-02-23T06:24:46;10.94;52.76
70234;DHT22;75981;42.636;23.376;2024-02-23T06:27:11;10.91;52.51
70234;DHT22;75981;42.636;23.376;2024-02-23T06:29:37;10.97;52.38
70234;DHT22;75981;42.636;23.376;2024-02-23T06:32:03;10.59;52.71
70234;DHT22;75981;42.636;23.376;2024-02-23T06:34:28;10.87;52.74
70234;DHT22;75981;42.636;23.376;2024-02-23T06:36:54;11.31;51.98
70234;DHT22;75981;42.636;23.376;2024-02-23T06:39:19;11.72;50.72
70234;DHT22;75981;42.636;23.376;2024-02-23T06:41:45;12.20;49.76
70234;DHT22;75981;42.636;23.376;2024-02-23T06:44:10;12.10;49.75
70234;DHT22;75981;42.636;23.376;2024-02-23T06:46:36;11.52;50.59
70234;DHT22;75981;42.636;23.376;2024-02-23T06:49:02;12.27;49.94
70234;DHT22;75981;42.636;23.376;2024-02-23T06:51:28;12.61;48.96
70234;DHT22;75981;42.636;23.376;2024-02-23T06:53:53;12.79;48.26
70234;DHT22;75981;42.636;23.376;2024-02-23T06:56:18;12.42;48.37
70234;DHT22;75981;42.636;23.376;2024-02-23T06:58:44;11.45;50.63
70234;DHT22;75981;42.636;23.376;2024-02-23T07:01:09;11.85;49.84
70234;DHT22;75981;42.636;23.376;2024-02-23T07:03:38;12.00;49.35
70234;DHT22;75981;42.636;23.376;2024-02-23T07:06:04;11.93;49.49
70234;DHT22;75981;42.636;23.376;2024-02-23T07:08:29;12.89;48.33
70234;DHT22;75981;42.636;23.376;2024-02-23T07:10:55;12.92;47.76
70234;DHT22;75981;42.636;23.376;2024-02-23T07:13:20;13.34;47.60
70234;DHT22;75981;42.636;23.376;2024-02-23T07:15:46;13.77;46.56
70234;DHT22;75981;42.636;23.376;2024-02-23T07:18:11;13.39;46.69
70234;DHT22;75981;42.636;23.376;2024-02-23T07:20:37;13.91;46.17
70234;DHT22;75981;42.636;23.376;2024-02-23T07:23:02;13.58;46.37
70234;DHT22;75981;42.636;23.376;2024-02-23T07:25:28;12.93;47.31
70234;DHT22;75981;42.636;23.376;2024-02-23T07:27:53;13.09;47.48
70234;DHT22;75981;42.636;23.376;2024-02-23T07:30:19;13.70;46.54
70234;DHT22;75981;42.636;23.376;2024-02-23T07:32:45;13.58;46.69
70234;DHT22;75981;42.636;23.376;2024-02-23T07:35:11;13.60;46.50
70234;DHT22;75981;42.636;23.376;2024-02-23T07:37:37;14.06;46.54
70234;DHT22;75981;42.636;23.376;2024-02-23T07:40:03;14.56;45.61
70234;DHT22;75981;42.636;23.376;2024-02-23T07:42:29;13.91;46.43
70234;DHT22;75981;42.636;23.376;2024-02-23T07:44:55;14.60;45.90
70234;DHT22;75981;42.636;23.376;2024-02-23T07:47:21;13.34;47.10
70234;DHT22;75981;42.636;23.376;2024-02-23T07:49:47;12.01;51.07
70234;DHT22;75981;42.636;23.376;2024-02-23T07:52:12;13.70;48.68
70234;DHT22;75981;42.636;23.376;2024-02-23T07:54:37;13.60;47.37
70234;DHT22;75981;42.636;23.376;2024-02-23T07:57:03;12.56;50.02
70234;DHT22;75981;42.636;23.376;2024-02-23T07:59:30;12.06;51.76
70234;DHT22;75981;42.636;23.376;2024-02-23T08:01:56;12.10;51.86
70234;DHT22;75981;42.636;23.376;2024-02-23T08:04:21;13.78;49.13
70234;DHT22;75981;42.636;23.376;2024-02-23T08:06:47;12.74;50.26
70234;DHT22;75981;42.636;23.376;2024-02-23T08:09:13;12.92;50.35
70234;DHT22;75981;42.636;23.376;2024-02-23T08:11:39;13.44;49.90
70234;DHT22;75981;42.636;23.376;2024-02-23T08:14:04;14.06;48.57
70234;DHT22;75981;42.636;23.376;2024-02-23T08:16:30;13.03;50.57
70234;DHT22;75981;42.636;23.376;2024-02-23T08:18:55;12.68;51.56
70234;DHT22;75981;42.636;23.376;2024-02-23T08:21:21;12.14;52.28
70234;DHT22;75981;42.636;23.376;2024-02-23T08:23:46;12.27;52.75
70234;DHT22;75981;42.636;23.376;2024-02-23T08:26:12;12.55;51.76
70234;DHT22;75981;42.636;23.376;2024-02-23T08:28:37;13.09;50.51
70234;DHT22;75981;42.636;23.376;2024-02-23T08:31:03;13.17;50.09
70234;DHT22;75981;42.636;23.376;2024-02-23T08:33:28;13.50;49.50
70234;DHT22;75981;42.636;23.376;2024-02-23T08:35:54;13.54;49.57
70234;DHT22;75981;42.636;23.376;2024-02-23T08:38:20;14.40;48.27
70234;DHT22;75981;42.636;23.376;2024-02-23T08:40:45;14.67;46.73
70234;DHT22;75981;42.636;23.376;2024-02-23T08:43:11;14.44;46.99
70234;DHT22;75981;42.636;23.376;2024-02-23T08:45:36;13.81;47.78
70234;DHT22;75981;42.636;23.376;2024-02-23T08:48:02;13.60;48.41
70234;DHT22;75981;42.636;23.376;2024-02-23T08:50:28;12.69;51.03
70234;DHT22;75981;42.636;23.376;2024-02-23T08:52:54;13.71;48.95
70234;DHT22;75981;42.636;23.376;2024-02-23T08:55:19;14.74;47.43
70234;DHT22;75981;42.636;23.376;2024-02-23T08:57:46;14.98;46.85
70234;DHT22;75981;42.636;23.376;2024-02-23T09:00:12;14.04;48.70
70234;DHT22;75981;42.636;23.376;2024-02-23T09:02:38;14.83;46.77
70234;DHT22;75981;42.636;23.376;2024-02-23T09:05:04;16.01;44.83
70234;DHT22;75981;42.636;23.376;2024-02-23T09:07:30;15.45;45.46
70234;DHT22;75981;42.636;23.376;2024-02-23T09:09:55;15.85;44.33
70234;DHT22;75981;42.636;23.376;2024-02-23T09:12:22;15.09;45.58
70234;DHT22;75981;42.636;23.376;2024-02-23T09:14:47;15.12;45.49
70234;DHT22;75981;42.636;23.376;2024-02-23T09:17:13;15.08;45.29
70234;DHT22;75981;42.636;23.376;2024-02-23T09:19:38;14.76;45.83
70234;DHT22;75981;42.636;23.376;2024-02-23T09:22:04;14.47;45.83
70234;DHT22;75981;42.636;23.376;2024-02-23T09:24:30;15.05;45.10
70234;DHT22;75981;42.636;23.376;2024-02-23T09:26:55;15.94;43.33
70234;DHT22;75981;42.636;23.376;2024-02-23T09:29:21;14.81;43.61
70234;DHT22;75981;42.636;23.376;2024-02-23T09:31:47;16.14;42.54
70234;DHT22;75981;42.636;23.376;2024-02-23T09:34:12;15.36;43.37
70234;DHT22;75981;42.636;23.376;2024-02-23T09:36:38;14.97;44.12
70234;DHT22;75981;42.636;23.376;2024-02-23T09:39:03;14.18;45.60
70234;DHT22;75981;42.636;23.376;2024-02-23T09:41:30;14.46;45.29
70234;DHT22;75981;42.636;23.376;2024-02-23T09:43:58;14.66;44.26
70234;DHT22;75981;42.636;23.376;2024-02-23T09:46:25;14.30;45.71
70234;DHT22;75981;42.636;23.376;2024-02-23T09:48:51;14.49;44.81
70234;DHT22;75981;42.636;23.376;2024-02-23T09:51:16;14.04;45.77
70234;DHT22;75981;42.636;23.376;2024-02-23T09:53:43;14.12;45.05
70234;DHT22;75981;42.636;23.376;2024-02-23T09:56:09;14.46;44.46
70234;DHT22;75981;42.636;23.376;2024-02-23T09:58:36;14.84;43.99
70234;DHT22;75981;42.636;23.376;2024-02-23T10:01:03;15.38;43.63
70234;DHT22;75981;42.636;23.376;2024-02-23T10:03:29;16.18;42.75
70234;DHT22;75981;42.636;23.376;2024-02-23T10:05:59;16.64;41.12
70234;DHT22;75981;42.636;23.376;2024-02-23T10:08:28;17.17;40.28
70234;DHT22;75981;42.636;23.376;2024-02-23T10:10:54;17.12;39.71
70234;DHT22;75981;42.636;23.376;2024-02-23T10:13:22;17.22;39.52
70234;DHT22;75981;42.636;23.376;2024-02-23T10:15:52;16.82;40.04
70234;DHT22;75981;42.636;23.376;2024-02-23T10:18:18;17.45;39.48
70234;DHT22;75981;42.636;23.376;2024-02-23T10:20:44;18.47;37.96
70234;DHT22;75981;42.636;23.376;2024-02-23T10:23:09;18.53;37.42
70234;DHT22;75981;42.636;23.376;2024-02-23T10:25:35;18.34;36.93
70234;DHT22;75981;42.636;23.376;2024-02-23T10:28:02;18.40;37.32
70234;DHT22;75981;42.636;23.376;2024-02-23T10:30:28;17.45;37.69
70234;DHT22;75981;42.636;23.376;2024-02-23T10:32:56;17.63;37.69
70234;DHT22;75981;42.636;23.376;2024-02-23T10:35:22;17.61;36.98
70234;DHT22;75981;42.636;23.376;2024-02-23T10:37:49;18.23;37.02
70234;DHT22;75981;42.636;23.376;2024-02-23T10:40:19;18.49;36.60
70234;DHT22;75981;42.636;23.376;2024-02-23T10:42:46;18.44;36.67
70234;DHT22;75981;42.636;23.376;2024-02-23T10:45:17;18.56;35.63
70234;DHT22;75981;42.636;23.376;2024-02-23T10:47:43;17.96;36.29
70234;DHT22;75981;42.636;23.376;2024-02-23T10:50:09;18.25;36.30
70234;DHT22;75981;42.636;23.376;2024-02-23T10:52:36;18.29;35.80
70234;DHT22;75981;42.636;23.376;2024-02-23T10:55:04;17.61;36.41
70234;DHT22;75981;42.636;23.376;2024-02-23T10:57:31;17.82;36.01
70234;DHT22;75981;42.636;23.376;2024-02-23T10:59:58;17.45;36.48
70234;DHT22;75981;42.636;23.376;2024-02-23T11:02:24;16.38;37.76
70234;DHT22;75981;42.636;23.376;2024-02-23T11:04:51;16.56;37.75
70234;DHT22;75981;42.636;23.376;2024-02-23T11:07:21;17.61;35.72
70234;DHT22;75981;42.636;23.376;2024-02-23T11:09:52;17.77;35.85
70234;DHT22;75981;42.636;23.376;2024-02-23T11:12:26;18.49;35.45
70234;DHT22;75981;42.636;23.376;2024-02-23T11:14:51;18.84;34.55
70234;DHT22;75981;42.636;23.376;2024-02-23T11:17:22;18.34;34.70
70234;DHT22;75981;42.636;23.376;2024-02-23T11:19:50;17.95;35.06
70234;DHT22;75981;42.636;23.376;2024-02-23T11:22:27;17.64;35.06
70234;DHT22;75981;42.636;23.376;2024-02-23T11:24:53;18.34;34.58
70234;DHT22;75981;42.636;23.376;2024-02-23T11:27:18;18.47;34.80
70234;DHT22;75981;42.636;23.376;2024-02-23T11:29:47;18.02;35.15
70234;DHT22;75981;42.636;23.376;2024-02-23T11:32:15;17.95;35.39
70234;DHT22;75981;42.636;23.376;2024-02-23T11:34:40;17.31;36.21
70234;DHT22;75981;42.636;23.376;2024-02-23T11:37:12;18.06;35.19
70234;DHT22;75981;42.636;23.376;2024-02-23T11:39:38;18.42;34.72
70234;DHT22;75981;42.636;23.376;2024-02-23T11:42:09;18.13;35.72
70234;DHT22;75981;42.636;23.376;2024-02-23T11:44:34;17.51;35.98
70234;DHT22;75981;42.636;23.376;2024-02-23T11:47:00;18.03;35.36
70234;DHT22;75981;42.636;23.376;2024-02-23T11:49:29;17.85;35.94
70234;DHT22;75981;42.636;23.376;2024-02-23T11:51:57;18.06;35.74
70234;DHT22;75981;42.636;23.376;2024-02-23T11:54:22;18.56;35.49
70234;DHT22;75981;42.636;23.376;2024-02-23T11:56:49;18.43;35.24
70234;DHT22;75981;42.636;23.376;2024-02-23T11:59:19;18.90;35.05
70234;DHT22;75981;42.636;23.376;2024-02-23T12:01:46;18.74;33.65
70234;DHT22;75981;42.636;23.376;2024-02-23T12:04:12;17.82;34.53
70234;DHT22;75981;42.636;23.376;2024-02-23T12:06:38;17.05;35.31
70234;DHT22;75981;42.636;23.376;2024-02-23T12:09:03;17.53;34.68
70234;DHT22;75981;42.636;23.376;2024-02-23T12:11:30;17.94;34.14
70234;DHT22;75981;42.636;23.376;2024-02-23T12:13:55;17.60;34.71
70234;DHT22;75981;42.636;23.376;2024-02-23T12:16:21;17.88;34.89
70234;DHT22;75981;42.636;23.376;2024-02-23T12:18:53;17.81;35.02
70234;DHT22;75981;42.636;23.376;2024-02-23T12:21:19;17.82;35.02
70234;DHT22;75981;42.636;23.376;2024-02-23T12:23:45;16.86;36.72
70234;DHT22;75981;42.636;23.376;2024-02-23T12:26:15;16.71;37.14
70234;DHT22;75981;42.636;23.376;2024-02-23T12:28:41;16.44;37.03
70234;DHT22;75981;42.636;23.376;2024-02-23T12:31:07;16.38;35.85
70234;DHT22;75981;42.636;23.376;2024-02-23T12:33:36;16.31;37.28
70234;DHT22;75981;42.636;23.376;2024-02-23T12:36:05;16.21;38.19
70234;DHT22;75981;42.636;23.376;2024-02-23T12:38:31;16.18;38.95
70234;DHT22;75981;42.636;23.376;2024-02-23T12:40:57;16.25;38.99
70234;DHT22;75981;42.636;23.376;2024-02-23T12:43:23;16.06;39.29
70234;DHT22;75981;42.636;23.376;2024-02-23T12:45:52;15.98;39.54
70234;DHT22;75981;42.636;23.376;2024-02-23T12:48:18;15.98;39.41
70234;DHT22;75981;42.636;23.376;2024-02-23T12:50:45;16.00;39.34
70234;DHT22;75981;42.636;23.376;2024-02-23T12:53:30;15.97;36.36
70234;DHT22;75981;42.636;23.376;2024-02-23T12:56:04;16.37;35.59
70234;DHT22;75981;42.636;23.376;2024-02-23T12:58:33;15.91;37.75
70234;DHT22;75981;42.636;23.376;2024-02-23T13:00:59;15.59;39.03
70234;DHT22;75981;42.636;23.376;2024-02-23T13:03:25;15.76;39.10
70234;DHT22;75981;42.636;23.376;2024-02-23T13:06:01;15.71;39.12
70234;DHT22;75981;42.636;23.376;2024-02-23T13:08:27;15.71;39.07
70234;DHT22;75981;42.636;23.376;2024-02-23T13:10:54;15.91;39.11
70234;DHT22;75981;42.636;23.376;2024-02-23T13:13:21;15.94;38.85
70234;DHT22;75981;42.636;23.376;2024-02-23T13:15:47;15.83;39.37
70234;DHT22;75981;42.636;23.376;2024-02-23T13:18:13;15.90;38.39
70234;DHT22;75981;42.636;23.376;2024-02-23T13:20:39;15.82;38.33
70234;DHT22;75981;42.636;23.376;2024-02-23T13:23:06;15.80;39.07
70234;DHT22;75981;42.636;23.376;2024-02-23T13:25:36;15.69;39.61
70234;DHT22;75981;42.636;23.376;2024-02-23T13:28:02;15.73;40.04
70234;DHT22;75981;42.636;23.376;2024-02-23T13:30:28;15.80;40.26
70234;DHT22;75981;42.636;23.376;2024-02-23T13:32:53;15.90;39.50
70234;DHT22;75981;42.636;23.376;2024-02-23T13:35:19;15.85;39.47
70234;DHT22;75981;42.636;23.376;2024-02-23T13:37:44;15.87;38.78
70234;DHT22;75981;42.636;23.376;2024-02-23T13:40:10;15.98;38.52
70234;DHT22;75981;42.636;23.376;2024-02-23T13:42:36;16.29;37.98
70234;DHT22;75981;42.636;23.376;2024-02-23T13:45:05;16.27;38.02
70234;DHT22;75981;42.636;23.376;2024-02-23T13:47:30;16.11;37.24
70234;DHT22;75981;42.636;23.376;2024-02-23T13:49:56;16.07;37.57
70234;DHT22;75981;42.636;23.376;2024-02-23T13:52:22;16.35;37.02
70234;DHT22;75981;42.636;23.376;2024-02-23T13:54:47;16.51;36.54
70234;DHT22;75981;42.636;23.376;2024-02-23T13:57:13;16.28;36.68
70234;DHT22;75981;42.636;23.376;2024-02-23T13:59:38;16.11;36.65
70234;DHT22;75981;42.636;23.376;2024-02-23T14:02:04;16.00;37.49
70234;DHT22;75981;42.636;23.376;2024-02-23T14:04:29;16.08;37.60
70234;DHT22;75981;42.636;23.376;2024-02-23T14:06:55;15.94;37.71
70234;DHT22;75981;42.636;23.376;2024-02-23T14:09:21;15.86;37.79
70234;DHT22;75981;42.636;23.376;2024-02-23T14:11:46;15.79;38.10
70234;DHT22;75981;42.636;23.376;2024-02-23T14:14:12;15.82;37.79
70234;DHT22;75981;42.636;23.376;2024-02-23T14:16:38;15.90;38.00
70234;DHT22;75981;42.636;23.376;2024-02-23T14:19:04;15.91;37.71
70234;DHT22;75981;42.636;23.376;2024-02-23T14:21:29;15.85;37.76
70234;DHT22;75981;42.636;23.376;2024-02-23T14:23:55;15.79;38.54
70234;DHT22;75981;42.636;23.376;2024-02-23T14:26:20;16.11;38.13
70234;DHT22;75981;42.636;23.376;2024-02-23T14:28:46;16.11;37.89
70234;DHT22;75981;42.636;23.376;2024-02-23T14:31:11;16.08;38.07
70234;DHT22;75981;42.636;23.376;2024-02-23T14:33:37;16.00;38.13
70234;DHT22;75981;42.636;23.376;2024-02-23T14:36:02;15.94;38.06
70234;DHT22;75981;42.636;23.376;2024-02-23T14:38:28;15.94;37.67
70234;DHT22;75981;42.636;23.376;2024-02-23T14:40:53;16.08;37.78
70234;DHT22;75981;42.636;23.376;2024-02-23T14:43:19;16.22;37.64
70234;DHT22;75981;42.636;23.376;2024-02-23T14:45:44;16.58;37.18
70234;DHT22;75981;42.636;23.376;2024-02-23T14:48:10;16.49;37.10
70234;DHT22;75981;42.636;23.376;2024-02-23T14:50:35;16.64;37.51
70234;DHT22;75981;42.636;23.376;2024-02-23T14:53:01;16.51;37.47
70234;DHT22;75981;42.636;23.376;2024-02-23T14:55:26;16.38;37.40
70234;DHT22;75981;42.636;23.376;2024-02-23T14:57:52;16.32;37.46
70234;DHT22;75981;42.636;23.376;2024-02-23T15:00:17;16.34;37.63
70234;DHT22;75981;42.636;23.376;2024-02-23T15:02:43;16.51;38.06
70234;DHT22;75981;42.636;23.376;2024-02-23T15:05:09;16.49;37.33
70234;DHT22;75981;42.636;23.376;2024-02-23T15:07:35;16.07;38.18
70234;DHT22;75981;42.636;23.376;2024-02-23T15:10:03;16.06;38.46
70234;DHT22;75981;42.636;23.376;2024-02-23T15:12:36;15.79;37.95
70234;DHT22;75981;42.636;23.376;2024-02-23T15:15:02;15.82;37.81